createdAt,value
2022-12-18T00:00:46.678Z,-8.23
2022-12-18T00:01:48.458Z,-8.26
2022-12-18T00:02:50.512Z,-8.28
2022-12-18T00:03:52.050Z,-8.31
2022-12-18T00:04:53.626Z,-8.32
2022-12-18T00:05:55.342Z,-8.35
2022-12-18T00:06:57.065Z,-8.33
2022-12-18T00:07:58.838Z,-8.39
2022-12-18T00:09:00.555Z,-8.42
2022-12-18T00:10:02.282Z,-8.44
2022-12-18T00:11:04.023Z,-8.48
2022-12-18T00:13:09.951Z,-8.52
2022-12-18T00:14:09.199Z,-8.54
2022-12-18T00:15:10.939Z,-8.57
2022-12-18T00:16:12.767Z,-8.58
2022-12-18T00:17:14.434Z,-8.61
2022-12-18T00:18:20.435Z,-8.65
2022-12-18T00:19:17.881Z,-8.66
2022-12-18T00:20:19.596Z,-8.69
2022-12-18T00:21:21.346Z,-8.7
2022-12-18T00:22:23.097Z,-8.71
2022-12-18T00:23:24.820Z,-8.74
2022-12-18T00:24:26.560Z,-8.75
2022-12-18T00:25:28.302Z,-8.79
2022-12-18T00:26:30.020Z,-8.82
2022-12-18T00:27:31.768Z,-8.84
2022-12-18T00:28:33.512Z,-8.85
2022-12-18T00:29:35.228Z,-8.87
2022-12-18T00:30:36.989Z,-8.87
2022-12-18T00:31:38.867Z,-8.9
2022-12-18T00:32:40.424Z,-8.93
2022-12-18T00:33:42.531Z,-8.95
2022-12-18T00:34:43.888Z,-8.97
2022-12-18T00:35:45.640Z,-8.99
2022-12-18T00:36:47.366Z,-8.99
2022-12-18T00:37:49.114Z,-9.03
2022-12-18T00:38:50.833Z,-9.05
2022-12-18T00:39:52.563Z,-9.08
2022-12-18T00:40:54.309Z,-9.1
2022-12-18T00:41:56.040Z,-9.1
2022-12-18T00:42:57.775Z,-9.14
2022-12-18T00:43:59.511Z,-9.14
2022-12-18T00:45:01.248Z,-9.17
2022-12-18T00:46:03.047Z,-9.21
2022-12-18T00:47:04.723Z,-9.22
2022-12-18T00:48:06.437Z,-9.24
2022-12-18T00:49:08.189Z,-9.25
2022-12-18T00:50:09.906Z,-9.23
2022-12-18T00:51:11.627Z,-9.26
2022-12-18T00:52:13.389Z,-9.27
2022-12-18T00:53:15.124Z,-9.29
2022-12-18T00:54:16.839Z,-9.3
2022-12-18T00:55:18.578Z,-9.31
2022-12-18T00:56:20.322Z,-9.33
2022-12-18T00:57:22.056Z,-9.32
2022-12-18T00:58:23.776Z,-9.33
2022-12-18T00:59:25.516Z,-9.35
2022-12-18T01:00:27.255Z,-9.38
2022-12-18T01:01:29.175Z,-9.39
2022-12-18T01:02:30.854Z,-9.37
2022-12-18T01:03:32.508Z,-9.39
2022-12-18T01:04:34.180Z,-9.38
2022-12-18T01:05:35.911Z,-9.41
2022-12-18T01:06:37.666Z,-9.43
2022-12-18T01:07:39.391Z,-9.41
2022-12-18T01:08:41.122Z,-9.43
2022-12-18T01:09:42.833Z,-9.45
2022-12-18T01:10:44.579Z,-9.45
2022-12-18T01:11:46.323Z,-9.45
2022-12-18T01:12:48.060Z,-9.48
2022-12-18T01:13:49.795Z,-9.5
2022-12-18T01:14:51.510Z,-9.5
2022-12-18T01:15:53.247Z,-9.52
2022-12-18T01:16:55.071Z,-9.51
2022-12-18T01:17:56.758Z,-9.53
2022-12-18T01:18:58.458Z,-9.52
2022-12-18T01:20:00.192Z,-9.53
2022-12-18T01:21:01.935Z,-9.55
2022-12-18T01:22:03.673Z,-9.55
2022-12-18T01:23:05.407Z,-9.57
2022-12-18T01:24:07.142Z,-9.58
2022-12-18T01:25:08.863Z,-9.58
2022-12-18T01:26:10.591Z,-9.61
2022-12-18T01:27:12.334Z,-9.63
2022-12-18T01:28:14.071Z,-9.65
2022-12-18T01:29:15.799Z,-9.65
2022-12-18T01:30:18.452Z,-9.65
2022-12-18T01:31:19.329Z,-9.66
2022-12-18T01:32:21.004Z,-9.64
2022-12-18T01:33:22.755Z,-9.66
2022-12-18T01:34:24.487Z,-9.69
2022-12-18T01:35:26.212Z,-9.7
2022-12-18T01:36:27.942Z,-9.71
2022-12-18T01:37:29.660Z,-9.72
2022-12-18T01:38:31.434Z,-9.72
2022-12-18T01:39:33.172Z,-9.72
2022-12-18T01:40:34.893Z,-9.74
2022-12-18T01:41:36.637Z,-9.73
2022-12-18T01:42:38.393Z,-9.75
2022-12-18T01:43:40.537Z,-9.77
2022-12-18T01:44:41.801Z,-9.76
2022-12-18T01:45:43.595Z,-9.76
2022-12-18T01:46:45.253Z,-9.77
2022-12-18T01:47:47.008Z,-9.77
2022-12-18T01:48:48.715Z,-9.77
2022-12-18T01:49:50.442Z,-9.77
2022-12-18T01:50:52.174Z,-9.78
2022-12-18T01:51:53.897Z,-9.74
2022-12-18T01:52:55.636Z,-9.71
2022-12-18T01:53:57.368Z,-9.68
2022-12-18T01:54:59.116Z,-9.68
2022-12-18T01:56:00.821Z,-9.62
2022-12-18T01:57:02.572Z,-9.6
2022-12-18T01:58:04.313Z,-9.57
2022-12-18T01:59:06.049Z,-9.55
2022-12-18T02:00:07.756Z,-9.49
2022-12-18T02:01:09.595Z,-9.47
2022-12-18T02:02:11.308Z,-9.46
2022-12-18T02:03:13.018Z,-9.44
2022-12-18T02:04:14.703Z,-9.42
2022-12-18T02:05:16.428Z,-9.4
2022-12-18T02:06:18.208Z,-9.39
2022-12-18T02:07:19.907Z,-9.33
2022-12-18T02:08:21.646Z,-9.33
2022-12-18T02:09:23.396Z,-9.33
2022-12-18T02:10:25.143Z,-9.31
2022-12-18T02:11:26.842Z,-9.28
2022-12-18T02:12:28.576Z,-9.25
2022-12-18T02:13:30.334Z,-9.26
2022-12-18T02:14:32.057Z,-9.22
2022-12-18T02:15:33.778Z,-9.24
2022-12-18T02:16:35.674Z,-9.23
2022-12-18T02:17:37.259Z,-9.2
2022-12-18T02:18:38.982Z,-9.21
2022-12-18T02:19:40.739Z,-9.21
2022-12-18T02:20:42.457Z,-9.19
2022-12-18T02:21:44.178Z,-9.2
2022-12-18T02:22:45.923Z,-9.21
2022-12-18T02:23:47.678Z,-9.18
2022-12-18T02:24:49.409Z,-9.19
2022-12-18T02:25:51.118Z,-9.2
2022-12-18T02:26:52.856Z,-9.21
2022-12-18T02:27:54.601Z,-9.22
2022-12-18T02:28:56.326Z,-9.24
2022-12-18T02:29:59.028Z,-9.25
2022-12-18T02:30:59.830Z,-9.26
2022-12-18T02:32:01.525Z,-9.28
2022-12-18T02:33:03.263Z,-9.27
2022-12-18T02:34:04.997Z,-9.27
2022-12-18T02:35:06.737Z,-9.28
2022-12-18T02:36:08.443Z,-9.3
2022-12-18T02:37:10.191Z,-9.3
2022-12-18T02:38:11.948Z,-9.31
2022-12-18T02:39:13.646Z,-9.31
2022-12-18T02:40:15.406Z,-9.33
2022-12-18T02:41:17.131Z,-9.33
2022-12-18T02:42:18.850Z,-9.34
2022-12-18T02:43:20.599Z,-9.34
2022-12-18T02:44:22.343Z,-9.34
2022-12-18T02:45:24.080Z,-9.36
2022-12-18T02:46:25.803Z,-9.36
2022-12-18T02:47:27.553Z,-9.35
2022-12-18T02:48:29.312Z,-9.33
2022-12-18T02:49:31.004Z,-9.33
2022-12-18T02:50:32.754Z,-9.31
2022-12-18T02:51:34.482Z,-9.33
2022-12-18T02:52:36.274Z,-9.27
2022-12-18T02:53:38.394Z,-9.28
2022-12-18T02:54:39.666Z,-9.27
2022-12-18T02:55:41.405Z,-9.26
2022-12-18T02:56:43.138Z,-9.25
2022-12-18T02:57:44.897Z,-9.26
2022-12-18T02:58:46.632Z,-9.25
2022-12-18T02:59:48.367Z,-9.21
2022-12-18T03:00:50.170Z,-9.2
2022-12-18T03:01:52.069Z,-9.19
2022-12-18T03:02:53.754Z,-9.18
2022-12-18T03:03:55.286Z,-9.17
2022-12-18T03:04:57.025Z,-9.18
2022-12-18T03:05:58.781Z,-9.17
2022-12-18T03:07:00.533Z,-9.17
2022-12-18T03:08:02.253Z,-9.16
2022-12-18T03:09:03.959Z,-9.15
2022-12-18T03:10:05.701Z,-9.13
2022-12-18T03:11:07.417Z,-9.14
2022-12-18T03:12:09.165Z,-9.12
2022-12-18T03:13:10.911Z,-9.12
2022-12-18T03:14:12.624Z,-9.13
2022-12-18T03:15:17.667Z,-9.09
2022-12-18T03:16:16.129Z,-9.09
2022-12-18T03:17:17.805Z,-9.08
2022-12-18T03:18:19.556Z,-9.07
2022-12-18T03:19:21.272Z,-9.06
2022-12-18T03:20:23.006Z,-9.07
2022-12-18T03:21:24.763Z,-9.05
2022-12-18T03:22:26.489Z,-9.05
2022-12-18T03:23:28.226Z,-9.05
2022-12-18T03:24:29.946Z,-9.02
2022-12-18T03:25:31.677Z,-9.03
2022-12-18T03:26:33.427Z,-9.02
2022-12-18T03:27:35.163Z,-9.01
2022-12-18T03:28:36.901Z,-9.01
2022-12-18T03:29:38.622Z,-8.98
2022-12-18T03:30:40.466Z,-9
2022-12-18T03:31:42.097Z,-8.97
2022-12-18T03:32:43.814Z,-8.97
2022-12-18T03:33:45.552Z,-8.96
2022-12-18T03:34:47.265Z,-8.92
2022-12-18T03:35:48.985Z,-8.89
2022-12-18T03:36:50.730Z,-8.86
2022-12-18T03:37:52.455Z,-8.82
2022-12-18T03:38:54.192Z,-8.81
2022-12-18T03:39:55.962Z,-8.75
2022-12-18T03:40:57.642Z,-8.75
2022-12-18T03:41:59.380Z,-8.72
2022-12-18T03:43:01.124Z,-8.68
2022-12-18T03:44:02.875Z,-8.64
2022-12-18T03:45:04.573Z,-8.6
2022-12-18T03:46:06.365Z,-8.6
2022-12-18T03:47:08.051Z,-8.59
2022-12-18T03:48:09.803Z,-8.55
2022-12-18T03:49:11.504Z,-8.51
2022-12-18T03:50:13.260Z,-8.52
2022-12-18T03:51:14.983Z,-8.48
2022-12-18T03:52:16.720Z,-8.46
2022-12-18T03:53:18.469Z,-8.47
2022-12-18T03:54:20.202Z,-8.45
2022-12-18T03:55:21.918Z,-8.43
2022-12-18T03:56:23.667Z,-8.43
2022-12-18T03:57:25.398Z,-8.43
2022-12-18T03:58:27.133Z,-8.42
2022-12-18T03:59:28.856Z,-8.41
2022-12-18T04:00:30.595Z,-8.42
2022-12-18T04:01:32.426Z,-8.41
2022-12-18T04:02:34.166Z,-8.4
2022-12-18T04:03:36.523Z,-8.43
2022-12-18T04:04:37.538Z,-8.42
2022-12-18T04:05:39.252Z,-8.41
2022-12-18T04:06:40.999Z,-8.41
2022-12-18T04:07:42.731Z,-8.44
2022-12-18T04:08:44.497Z,-8.45
2022-12-18T04:09:46.195Z,-8.43
2022-12-18T04:10:47.920Z,-8.43
2022-12-18T04:11:49.662Z,-8.44
2022-12-18T04:12:51.412Z,-8.44
2022-12-18T04:13:53.136Z,-8.47
2022-12-18T04:14:54.871Z,-8.46
2022-12-18T04:15:56.712Z,-8.47
2022-12-18T04:16:58.340Z,-8.5
2022-12-18T04:18:00.100Z,-8.51
2022-12-18T04:19:01.800Z,-8.5
2022-12-18T04:20:03.541Z,-8.51
2022-12-18T04:21:05.269Z,-8.54
2022-12-18T04:22:06.992Z,-8.54
2022-12-18T04:23:08.742Z,-8.54
2022-12-18T04:24:10.468Z,-8.57
2022-12-18T04:25:12.215Z,-8.59
2022-12-18T04:26:13.933Z,-8.6
2022-12-18T04:27:15.675Z,-8.57
2022-12-18T04:28:17.432Z,-8.61
2022-12-18T04:29:19.143Z,-8.62
2022-12-18T04:30:20.867Z,-8.62
2022-12-18T04:31:22.709Z,-8.61
2022-12-18T04:32:24.336Z,-8.6
2022-12-18T04:33:26.103Z,-8.62
2022-12-18T04:34:27.811Z,-8.61
2022-12-18T04:35:29.550Z,-8.59
2022-12-18T04:36:31.287Z,-8.61
2022-12-18T04:37:33.002Z,-8.6
2022-12-18T04:38:34.769Z,-8.56
2022-12-18T04:39:36.492Z,-8.53
2022-12-18T04:40:38.227Z,-8.54
2022-12-18T04:41:39.949Z,-8.5
2022-12-18T04:42:41.718Z,-8.5
2022-12-18T04:43:43.507Z,-8.49
2022-12-18T04:44:45.145Z,-8.48
2022-12-18T04:45:46.876Z,-8.46
2022-12-18T04:46:48.745Z,-8.44
2022-12-18T04:47:50.357Z,-8.44
2022-12-18T04:48:52.105Z,-8.44
2022-12-18T04:49:53.819Z,-8.42
2022-12-18T04:50:55.547Z,-8.41
2022-12-18T04:51:57.292Z,-8.43
2022-12-18T04:52:59.045Z,-8.42
2022-12-18T04:54:00.765Z,-8.44
2022-12-18T04:55:02.496Z,-8.43
2022-12-18T04:56:04.224Z,-8.43
2022-12-18T04:57:05.971Z,-8.46
2022-12-18T04:58:07.704Z,-8.44
2022-12-18T04:59:09.437Z,-8.46
2022-12-18T05:00:11.168Z,-8.46
2022-12-18T05:01:12.977Z,-8.44
2022-12-18T05:02:14.827Z,-8.44
2022-12-18T05:03:16.432Z,-8.47
2022-12-18T05:04:18.192Z,-8.48
2022-12-18T05:05:19.870Z,-8.5
2022-12-18T05:06:21.554Z,-8.5
2022-12-18T05:07:23.288Z,-8.52
2022-12-18T05:08:25.065Z,-8.51
2022-12-18T05:09:26.762Z,-8.51
2022-12-18T05:10:31.177Z,-8.53
2022-12-18T05:11:30.241Z,-8.55
2022-12-18T05:12:31.979Z,-8.54
2022-12-18T05:13:33.721Z,-8.57
2022-12-18T05:14:35.447Z,-8.57
2022-12-18T05:15:37.248Z,-8.58
2022-12-18T05:16:38.913Z,-8.57
2022-12-18T05:17:40.654Z,-8.58
2022-12-18T05:18:42.407Z,-8.6
2022-12-18T05:19:44.132Z,-8.61
2022-12-18T05:20:45.843Z,-8.62
2022-12-18T05:21:47.575Z,-8.62
2022-12-18T05:22:49.304Z,-8.61
2022-12-18T05:23:51.055Z,-8.64
2022-12-18T05:24:52.785Z,-8.65
2022-12-18T05:25:54.515Z,-8.66
2022-12-18T05:26:56.264Z,-8.65
2022-12-18T05:27:57.997Z,-8.69
2022-12-18T05:28:59.711Z,-8.69
2022-12-18T05:30:01.452Z,-8.69
2022-12-18T05:31:03.229Z,-8.71
2022-12-18T05:32:04.982Z,-8.72
2022-12-18T05:33:06.657Z,-8.73
2022-12-18T05:34:08.371Z,-8.72
2022-12-18T05:35:10.125Z,-8.73
2022-12-18T05:36:11.849Z,-8.74
2022-12-18T05:37:13.585Z,-8.76
2022-12-18T05:38:15.330Z,-8.75
2022-12-18T05:39:17.132Z,-8.76
2022-12-18T05:40:18.771Z,-8.76
2022-12-18T05:41:20.523Z,-8.77
2022-12-18T05:42:22.253Z,-8.79
2022-12-18T05:43:23.980Z,-8.78
2022-12-18T05:44:25.713Z,-8.78
2022-12-18T05:45:27.457Z,-8.77
2022-12-18T05:46:29.235Z,-8.77
2022-12-18T05:47:30.927Z,-8.74
2022-12-18T05:48:32.665Z,-8.74
2022-12-18T05:49:34.380Z,-8.71
2022-12-18T05:50:36.136Z,-8.67
2022-12-18T05:51:37.862Z,-8.66
2022-12-18T05:52:39.592Z,-8.64
2022-12-18T05:53:41.729Z,-8.61
2022-12-18T05:54:43.057Z,-8.59
2022-12-18T05:55:44.800Z,-8.55
2022-12-18T05:56:48.742Z,-8.5
2022-12-18T05:57:48.261Z,-8.47
2022-12-18T05:58:50.010Z,-8.48
2022-12-18T05:59:51.725Z,-8.44
2022-12-18T06:00:53.443Z,-8.43
2022-12-18T06:01:55.358Z,-8.39
2022-12-18T06:02:57.073Z,-8.41
2022-12-18T06:03:58.748Z,-8.39
2022-12-18T06:05:00.416Z,-8.37
2022-12-18T06:06:02.119Z,-8.4
2022-12-18T06:07:03.847Z,-8.4
2022-12-18T06:08:05.613Z,-8.4
2022-12-18T06:09:07.339Z,-8.41
2022-12-18T06:10:09.075Z,-8.38
2022-12-18T06:11:10.799Z,-8.39
2022-12-18T06:12:12.527Z,-8.38
2022-12-18T06:13:14.282Z,-8.42
2022-12-18T06:14:16.002Z,-8.41
2022-12-18T06:15:17.718Z,-8.42
2022-12-18T06:16:19.487Z,-8.43
2022-12-18T06:17:21.201Z,-8.45
2022-12-18T06:18:22.941Z,-8.43
2022-12-18T06:19:24.656Z,-8.45
2022-12-18T06:20:31.843Z,-8.48
2022-12-18T06:21:28.135Z,-8.48
2022-12-18T06:22:29.848Z,-8.49
2022-12-18T06:23:31.598Z,-8.49
2022-12-18T06:24:33.331Z,-8.51
2022-12-18T06:25:35.115Z,-8.5
2022-12-18T06:26:36.801Z,-8.51
2022-12-18T06:27:38.531Z,-8.5
2022-12-18T06:28:40.284Z,-8.56
2022-12-18T06:29:41.999Z,-8.57
2022-12-18T06:30:43.737Z,-8.58
2022-12-18T06:31:45.535Z,-8.59
2022-12-18T06:32:50.472Z,-8.58
2022-12-18T06:33:48.938Z,-8.61
2022-12-18T06:34:50.692Z,-8.62
2022-12-18T06:35:56.506Z,-8.61
2022-12-18T06:36:54.136Z,-8.63
2022-12-18T06:37:55.904Z,-8.65
2022-12-18T06:38:57.631Z,-8.65
2022-12-18T06:39:59.368Z,-8.66
2022-12-18T06:41:01.059Z,-8.69
2022-12-18T06:42:02.823Z,-8.71
2022-12-18T06:43:04.563Z,-8.72
2022-12-18T06:44:06.283Z,-8.73
2022-12-18T06:45:08.001Z,-8.74
2022-12-18T06:46:09.813Z,-8.74
2022-12-18T06:47:11.467Z,-8.74
2022-12-18T06:48:13.232Z,-8.77
2022-12-18T06:49:14.961Z,-8.75
2022-12-18T06:50:16.670Z,-8.78
2022-12-18T06:51:18.395Z,-8.77
2022-12-18T06:52:20.152Z,-8.79
2022-12-18T06:53:21.894Z,-8.77
2022-12-18T06:54:23.619Z,-8.78
2022-12-18T06:55:25.352Z,-8.81
2022-12-18T06:56:27.992Z,-8.82
2022-12-18T06:57:28.844Z,-8.82
2022-12-18T06:58:30.571Z,-8.82
2022-12-18T06:59:32.277Z,-8.84
2022-12-18T07:00:34.030Z,-8.82
2022-12-18T07:01:35.884Z,-8.84
2022-12-18T07:02:37.615Z,-8.82
2022-12-18T07:03:39.514Z,-8.83
2022-12-18T07:04:40.962Z,-8.84
2022-12-18T07:05:42.674Z,-8.83
2022-12-18T07:06:44.423Z,-8.82
2022-12-18T07:07:46.141Z,-8.8
2022-12-18T07:08:47.894Z,-8.79
2022-12-18T07:09:49.620Z,-8.8
2022-12-18T07:10:55.890Z,-8.79
2022-12-18T07:11:53.090Z,-8.77
2022-12-18T07:12:54.811Z,-8.76
2022-12-18T07:13:56.635Z,-8.76
2022-12-18T07:14:58.288Z,-8.75
2022-12-18T07:16:00.077Z,-8.77
2022-12-18T07:17:01.808Z,-8.76
2022-12-18T07:18:03.489Z,-8.73
2022-12-18T07:19:05.213Z,-8.74
2022-12-18T07:20:06.967Z,-8.75
2022-12-18T07:21:08.693Z,-8.77
2022-12-18T07:22:10.400Z,-8.75
2022-12-18T07:23:12.144Z,-8.79
2022-12-18T07:24:13.875Z,-8.79
2022-12-18T07:25:15.602Z,-8.8
2022-12-18T07:26:17.376Z,-8.79
2022-12-18T07:27:19.093Z,-8.82
2022-12-18T07:28:20.813Z,-8.8
2022-12-18T07:29:22.541Z,-8.84
2022-12-18T07:30:24.281Z,-8.83
2022-12-18T07:31:26.082Z,-8.83
2022-12-18T07:32:27.755Z,-8.86
2022-12-18T07:33:29.502Z,-8.86
2022-12-18T07:34:31.224Z,-8.86
2022-12-18T07:35:32.946Z,-8.84
2022-12-18T07:36:34.701Z,-8.83
2022-12-18T07:37:36.434Z,-8.83
2022-12-18T07:38:38.158Z,-8.83
2022-12-18T07:39:39.894Z,-8.82
2022-12-18T07:40:41.622Z,-8.8
2022-12-18T07:41:46.743Z,-8.8
2022-12-18T07:42:45.118Z,-8.77
2022-12-18T07:43:46.844Z,-8.76
2022-12-18T07:44:48.552Z,-8.76
2022-12-18T07:45:50.343Z,-8.74
2022-12-18T07:46:52.023Z,-8.71
2022-12-18T07:47:53.760Z,-8.71
2022-12-18T07:48:55.589Z,-8.69
2022-12-18T07:49:57.238Z,-8.66
2022-12-18T07:50:58.966Z,-8.66
2022-12-18T07:52:00.712Z,-8.63
2022-12-18T07:53:02.451Z,-8.6
2022-12-18T07:54:04.173Z,-8.59
2022-12-18T07:55:05.928Z,-8.54
2022-12-18T07:57:21.230Z,-8.49
2022-12-18T07:58:11.369Z,-8.48
2022-12-18T07:59:12.828Z,-8.46
2022-12-18T08:00:14.611Z,-8.43
2022-12-18T08:01:16.373Z,-8.42
2022-12-18T08:02:18.218Z,-8.39
2022-12-18T08:03:19.807Z,-8.36
2022-12-18T08:04:21.497Z,-8.35
2022-12-18T08:05:23.280Z,-8.33
2022-12-18T08:06:25.072Z,-8.32
2022-12-18T08:07:26.702Z,-8.28
2022-12-18T08:08:28.460Z,-8.27
2022-12-18T08:09:30.174Z,-8.26
2022-12-18T08:10:31.916Z,-8.22
2022-12-18T08:11:33.664Z,-8.21
2022-12-18T08:12:35.384Z,-8.19
2022-12-18T08:13:37.443Z,-8.17
2022-12-18T08:14:38.848Z,-8.15
2022-12-18T08:15:40.580Z,-8.15
2022-12-18T08:16:42.391Z,-8.1
2022-12-18T08:18:00.016Z,-8.04
2022-12-18T08:19:07.551Z,-8.07
2022-12-18T08:20:08.079Z,-8.07
2022-12-18T08:21:09.811Z,-8.07
2022-12-18T08:22:11.544Z,-8.04
2022-12-18T08:23:26.535Z,-8.03
2022-12-18T08:24:25.301Z,-8
2022-12-18T08:25:27.032Z,-7.98
2022-12-18T08:26:28.802Z,-7.97
2022-12-18T08:27:30.689Z,-7.97
2022-12-18T08:28:32.591Z,-7.95
2022-12-18T08:29:44.643Z,-7.94
2022-12-18T08:30:46.050Z,-7.94
2022-12-18T08:31:47.813Z,-7.93
2022-12-18T08:32:49.469Z,-7.91
2022-12-18T08:33:51.215Z,-7.92
2022-12-18T08:34:54.170Z,-7.91
2022-12-18T08:35:54.676Z,-7.87
2022-12-18T08:36:56.412Z,-7.82
2022-12-18T08:37:58.155Z,-7.81
2022-12-18T08:38:59.872Z,-7.79
2022-12-18T08:40:01.605Z,-7.75
2022-12-18T08:41:03.334Z,-7.71
2022-12-18T08:42:09.882Z,-7.67
2022-12-18T08:43:06.819Z,-7.63
2022-12-18T08:44:08.539Z,-7.6
2022-12-18T08:45:10.263Z,-7.56
2022-12-18T08:46:12.142Z,-7.53
2022-12-18T08:47:13.746Z,-7.5
2022-12-18T08:48:20.620Z,-7.44
2022-12-18T08:49:17.209Z,-7.41
2022-12-18T08:50:18.950Z,-7.39
2022-12-18T08:51:20.678Z,-7.41
2022-12-18T08:52:22.420Z,-7.37
2022-12-18T08:53:24.153Z,-7.34
2022-12-18T08:54:25.879Z,-7.31
2022-12-18T08:55:27.624Z,-7.27
2022-12-18T08:56:29.357Z,-7.26
2022-12-18T08:57:31.076Z,-7.23
2022-12-18T08:58:32.828Z,-7.18
2022-12-18T08:59:34.554Z,-7.16
2022-12-18T09:00:36.290Z,-7.15
2022-12-18T09:01:38.173Z,-7.1
2022-12-18T09:02:39.974Z,-7.12
2022-12-18T09:03:41.863Z,-7.1
2022-12-18T09:04:43.220Z,-7.07
2022-12-18T09:05:44.963Z,-7.08
2022-12-18T09:06:46.698Z,-7.04
2022-12-18T09:07:48.440Z,-7.02
2022-12-18T09:08:50.156Z,-7.06
2022-12-18T09:09:51.914Z,-7.04
2022-12-18T09:10:53.626Z,-7.01
2022-12-18T09:11:55.374Z,-6.99
2022-12-18T09:12:57.091Z,-7.03
2022-12-18T09:13:58.920Z,-7.02
2022-12-18T09:15:00.581Z,-7.04
2022-12-18T09:16:02.303Z,-7.03
2022-12-18T09:17:04.114Z,-7.04
2022-12-18T09:18:05.765Z,-7.02
2022-12-18T09:19:07.502Z,-7.06
2022-12-18T09:20:09.245Z,-7.07
2022-12-18T09:21:10.966Z,-7.1
2022-12-18T09:22:12.693Z,-7.12
2022-12-18T09:23:14.449Z,-7.11
2022-12-18T09:24:16.171Z,-7.09
2022-12-18T09:25:17.905Z,-7.07
2022-12-18T09:26:19.633Z,-7.04
2022-12-18T09:27:21.382Z,-7.02
2022-12-18T09:28:23.126Z,-7.03
2022-12-18T09:29:24.839Z,-7
2022-12-18T09:30:26.582Z,-6.97
2022-12-18T09:31:28.317Z,-6.96
2022-12-18T09:32:30.058Z,-6.93
2022-12-18T09:33:31.782Z,-6.93
2022-12-18T09:34:33.654Z,-6.88
2022-12-18T09:35:35.262Z,-6.84
2022-12-18T09:36:36.984Z,-6.79
2022-12-18T09:37:38.705Z,-6.74
2022-12-18T09:39:11.327Z,-6.72
2022-12-18T09:40:13.067Z,-6.65
2022-12-18T09:41:14.782Z,-6.62
2022-12-18T09:42:16.530Z,-6.59
2022-12-18T09:43:18.271Z,-6.56
2022-12-18T09:44:20.065Z,-6.56
2022-12-18T09:45:21.712Z,-6.54
2022-12-18T09:46:22.680Z,-6.49
2022-12-18T09:47:25.179Z,-6.53
2022-12-18T09:48:26.933Z,-6.56
2022-12-18T09:49:39.081Z,-6.52
2022-12-18T09:50:40.820Z,-6.54
2022-12-18T09:51:42.571Z,-6.52
2022-12-18T09:52:44.287Z,-6.53
2022-12-18T09:53:46.042Z,-6.53
2022-12-18T09:54:46.802Z,-6.53
2022-12-18T09:55:49.503Z,-6.55
2022-12-18T09:56:51.237Z,-6.53
2022-12-18T09:57:53.001Z,-6.51
2022-12-18T09:58:54.689Z,-6.5
2022-12-18T09:59:56.429Z,-6.52
2022-12-18T10:00:58.177Z,-6.48
2022-12-18T10:02:00.280Z,-6.45
2022-12-18T10:03:01.777Z,-6.44
2022-12-18T10:04:03.390Z,-6.39
2022-12-18T10:05:35.699Z,-6.35
2022-12-18T10:06:37.437Z,-6.33
2022-12-18T10:07:39.174Z,-6.3
2022-12-18T10:08:41.282Z,-6.27
2022-12-18T10:09:42.629Z,-6.2
2022-12-18T10:10:44.436Z,-6.17
2022-12-18T10:11:46.087Z,-6.11
2022-12-18T10:12:49.009Z,-6.03
2022-12-18T10:13:49.563Z,-5.99
2022-12-18T10:14:56.396Z,-5.92
2022-12-18T10:15:58.305Z,-5.83
2022-12-18T10:17:00.129Z,-5.78
2022-12-18T10:18:01.646Z,-5.76
2022-12-18T10:19:03.382Z,-5.71
2022-12-18T10:20:05.099Z,-5.66
2022-12-18T10:21:06.838Z,-5.62
2022-12-18T10:22:08.573Z,-5.55
2022-12-18T10:23:10.170Z,-5.51
2022-12-18T10:24:11.901Z,-5.47
2022-12-18T10:25:13.632Z,-5.43
2022-12-18T10:26:15.353Z,-5.39
2022-12-18T10:27:17.098Z,-5.36
2022-12-18T10:28:18.834Z,-5.33
2022-12-18T10:29:20.564Z,-5.32
2022-12-18T10:30:21.404Z,-5.31
2022-12-18T10:31:25.548Z,-5.28
2022-12-18T10:32:42.746Z,-5.27
2022-12-18T10:33:44.276Z,-5.3
2022-12-18T10:34:46.012Z,-5.29
2022-12-18T10:35:47.728Z,-5.28
2022-12-18T10:36:49.469Z,-5.29
2022-12-18T10:37:51.194Z,-5.29
2022-12-18T10:38:52.956Z,-5.29
2022-12-18T10:39:54.661Z,-5.3
2022-12-18T10:40:56.401Z,-5.3
2022-12-18T10:41:58.134Z,-5.4
2022-12-18T10:42:59.874Z,-5.46
2022-12-18T10:44:01.621Z,-5.47
2022-12-18T10:45:03.339Z,-5.46
2022-12-18T10:46:05.169Z,-5.49
2022-12-18T10:47:11.715Z,-5.51
2022-12-18T10:48:08.549Z,-5.54
2022-12-18T10:49:10.291Z,-5.6
2022-12-18T10:50:12.006Z,-5.62
2022-12-18T10:51:13.963Z,-5.63
2022-12-18T10:52:15.575Z,-5.63
2022-12-18T10:53:17.471Z,-5.67
2022-12-18T10:54:18.975Z,-5.68
2022-12-18T10:55:20.683Z,-5.66
2022-12-18T10:56:22.426Z,-5.66
2022-12-18T10:57:24.142Z,-5.7
2022-12-18T10:58:26.902Z,-5.71
2022-12-18T10:59:27.610Z,-5.72
2022-12-18T11:00:29.338Z,-5.69
2022-12-18T11:01:31.149Z,-5.72
2022-12-18T11:02:33.061Z,-5.71
2022-12-18T11:03:34.591Z,-5.7
2022-12-18T11:04:36.312Z,-5.7
2022-12-18T11:05:38.025Z,-5.68
2022-12-18T11:06:39.756Z,-5.67
2022-12-18T11:07:41.479Z,-5.74
2022-12-18T11:08:43.735Z,-5.72
2022-12-18T11:09:44.954Z,-5.71
2022-12-18T11:10:46.686Z,-5.7
2022-12-18T11:11:48.410Z,-5.71
2022-12-18T11:12:50.136Z,-5.69
2022-12-18T11:13:51.888Z,-5.68
2022-12-18T11:15:03.983Z,-5.67
2022-12-18T11:16:05.777Z,-5.69
2022-12-18T11:17:25.236Z,-5.68
2022-12-18T11:18:43.040Z,-5.69
2022-12-18T11:19:45.684Z,-5.68
2022-12-18T11:20:47.160Z,-5.72
2022-12-18T11:21:48.898Z,-5.73
2022-12-18T11:22:50.621Z,-5.74
2022-12-18T11:23:52.406Z,-5.78
2022-12-18T11:25:22.816Z,-5.78
2022-12-18T11:25:55.805Z,-5.81
2022-12-18T11:26:59.852Z,-5.81
2022-12-18T11:27:59.289Z,-5.82
2022-12-18T11:29:01.034Z,-5.85
2022-12-18T11:30:02.778Z,-5.84
2022-12-18T11:31:04.504Z,-5.85
2022-12-18T11:32:06.226Z,-5.82
2022-12-18T11:33:07.951Z,-5.82
2022-12-18T11:34:28.718Z,-5.8
2022-12-18T11:35:11.411Z,-5.8
2022-12-18T11:36:13.146Z,-5.81
2022-12-18T11:37:14.879Z,-5.8
2022-12-18T11:38:16.614Z,-5.77
2022-12-18T11:39:18.350Z,-5.77
2022-12-18T11:40:20.100Z,-5.78
2022-12-18T11:41:22.056Z,-5.74
2022-12-18T11:42:23.550Z,-5.73
2022-12-18T11:43:25.283Z,-5.72
2022-12-18T11:44:27.025Z,-5.73
2022-12-18T11:45:28.723Z,-5.72
2022-12-18T11:46:30.515Z,-5.7
2022-12-18T11:47:32.206Z,-5.71
2022-12-18T11:48:33.956Z,-5.7
2022-12-18T11:49:35.711Z,-5.67
2022-12-18T11:50:37.416Z,-5.67
2022-12-18T11:51:39.137Z,-5.64
2022-12-18T11:52:42.204Z,-5.63
2022-12-18T11:53:42.622Z,-5.61
2022-12-18T11:54:44.342Z,-5.63
2022-12-18T11:55:46.082Z,-5.6
2022-12-18T11:56:47.820Z,-5.59
2022-12-18T11:57:49.536Z,-5.58
2022-12-18T11:58:51.275Z,-5.56
2022-12-18T11:59:53.001Z,-5.54
2022-12-18T12:00:54.750Z,-5.51
2022-12-18T12:01:56.797Z,-5.51
2022-12-18T12:02:58.289Z,-5.48
2022-12-18T12:04:00.017Z,-5.46
2022-12-18T12:05:01.681Z,-5.45
2022-12-18T12:06:03.397Z,-5.42
2022-12-18T12:07:05.158Z,-5.42
2022-12-18T12:08:06.854Z,-5.4
2022-12-18T12:09:08.622Z,-5.4
2022-12-18T12:10:10.323Z,-5.41
2022-12-18T12:11:12.096Z,-5.4
2022-12-18T12:12:13.844Z,-5.42
2022-12-18T12:13:15.526Z,-5.42
2022-12-18T12:14:17.304Z,-5.41
2022-12-18T12:15:19.002Z,-5.41
2022-12-18T12:16:20.825Z,-5.41
2022-12-18T12:17:22.494Z,-5.43
2022-12-18T12:18:24.176Z,-5.42
2022-12-18T12:19:25.948Z,-5.42
2022-12-18T12:20:27.675Z,-5.46
2022-12-18T12:21:29.418Z,-5.46
2022-12-18T12:22:31.144Z,-5.48
2022-12-18T12:23:32.857Z,-5.49
2022-12-18T12:24:34.612Z,-5.49
2022-12-18T12:25:36.315Z,-5.54
2022-12-18T12:26:38.068Z,-5.51
2022-12-18T12:27:39.808Z,-5.52
2022-12-18T12:28:41.885Z,-5.51
2022-12-18T12:29:43.259Z,-5.5
2022-12-18T12:30:44.995Z,-5.48
2022-12-18T12:31:46.818Z,-5.48
2022-12-18T12:32:48.457Z,-5.47
2022-12-18T12:33:50.194Z,-5.47
2022-12-18T12:34:57.649Z,-5.48
2022-12-18T12:35:53.648Z,-5.46
2022-12-18T12:36:55.378Z,-5.46
2022-12-18T12:37:57.129Z,-5.45
2022-12-18T12:38:58.856Z,-5.44
2022-12-18T12:40:07.296Z,-5.44
2022-12-18T12:41:03.167Z,-5.43
2022-12-18T12:42:04.061Z,-5.43
2022-12-18T12:43:05.789Z,-5.44
2022-12-18T12:44:07.533Z,-5.42
2022-12-18T12:45:09.261Z,-5.41
2022-12-18T12:46:11.028Z,-5.42
2022-12-18T12:47:12.716Z,-5.41
2022-12-18T12:48:14.439Z,-5.4
2022-12-18T12:49:16.530Z,-5.45
2022-12-18T12:50:17.946Z,-5.44
2022-12-18T12:51:19.630Z,-5.43
2022-12-18T12:52:21.376Z,-5.46
2022-12-18T12:53:23.130Z,-5.46
2022-12-18T12:54:24.848Z,-5.47
2022-12-18T12:55:26.584Z,-5.51
2022-12-18T12:56:28.324Z,-5.52
2022-12-18T12:57:30.051Z,-5.5
2022-12-18T12:58:31.775Z,-5.51
2022-12-18T12:59:33.513Z,-5.5
2022-12-18T13:00:35.231Z,-5.5
2022-12-18T13:01:37.125Z,-5.52
2022-12-18T13:02:38.777Z,-5.5
2022-12-18T13:03:40.455Z,-5.5
2022-12-18T13:04:42.160Z,-5.49
2022-12-18T13:05:43.884Z,-5.48
2022-12-18T13:07:47.402Z,-5.49
2022-12-18T13:08:49.195Z,-5.48
2022-12-18T13:09:50.823Z,-5.47
2022-12-18T13:10:52.567Z,-5.48
2022-12-18T13:11:59.327Z,-5.48
2022-12-18T13:12:56.040Z,-5.47
2022-12-18T13:13:57.828Z,-5.5
2022-12-18T13:14:59.499Z,-5.48
2022-12-18T13:16:01.269Z,-5.49
2022-12-18T13:17:02.973Z,-5.49
2022-12-18T13:18:04.686Z,-5.5
2022-12-18T13:19:06.435Z,-5.48
2022-12-18T13:20:08.165Z,-5.51
2022-12-18T13:21:09.905Z,-5.51
2022-12-18T13:22:11.618Z,-5.51
2022-12-18T13:23:13.370Z,-5.5
2022-12-18T13:24:15.078Z,-5.51